AirNav   Duncan Aviation - Near you to keep you flying
 
 592 users online  

07NC Hawks Meadow Airport
Waxhaw, North Carolina, USA

GOING TO WAXHAW?


FAA INFORMATION EFFECTIVE 03 NOVEMBER 2022

Location

FAA Identifier: 07NC
Lat/Long: 34-49-59.5350N 080-45-04.2420W
34-49.992250N 080-45.070700W
34.8332042,-80.7511783
(estimated)
Elevation: 625 ft. / 190 m (estimated)
Variation: 05W (1990)
From city: 8 miles S of WAXHAW, NC
Time zone: UTC -5 (UTC -4 during Daylight Saving Time)
Zip code: 28173

Airport Operations

Airport use: Private use. Permission required prior to landing
Activation date: 04/1993
Control tower: no
ARTCC: ATLANTA CENTER
FSS: RALEIGH FLIGHT SERVICE STATION
Attendance: UNATNDD
Wind indicator: yes
Segmented circle: no

Airport Communications

WX AWOS-3 at LKR (8 nm SW): 120.825 (803-286-6444)
WX ASOS at EQY (13 nm NE): 135.775 (704-283-5185)
WX ASOS at UZA (18 nm NW): 120.775 (803-981-9388)

Nearby radio navigation aids

VOR radial/distance  VOR name  Freq  Var
CLTr160/23.6CHARLOTTE VOR/DME115.0005W
CTFr298/25.9CHESTERFIELD VOR/DME114.5503W

 
NDB name  Hdg/Dist  Freq  Var  ID
LANCASTER046/8.540007WLKR .-.. -.- .-.
CHESTER089/22.322006WDCM -.. -.-. --
STONIA143/29.426006WGHJ --. .... .---

Airport Services

Runway Information

Runway 8/26

Dimensions: 2000 x 50 ft. / 610 x 15 m
Surface: turf
RUNWAY 8  RUNWAY 26
Traffic pattern: leftleft
Obstructions: 20 ft. trees, 120 ft. from runway28 ft. plines

Airport Ownership and Management from official FAA records

Ownership: Privately-owned
Owner: WALLACE L. OVERTON
PO BOX 31305
CHARLOTTE, NC 28231
Phone 704-843-1085
Manager: WALLACE L. OVERTON
8504 WALKUP ROAD
WAXHAW, NC 28173
Phone 704-844-9300

Airport Operational Statistics

Aircraft based on the field: 2
Single engine airplanes: 2
    

Additional Remarks

FOR CD CTC CHARLOTTE APCH AT 704-359-0241.

Instrument Procedures

There are no published instrument procedures at 07NC.

Some nearby airports with instrument procedures:

N52 - JAARS-Townsend Airport (2 nm N)
KLKR - Lancaster County Airport-Mc Whirter Field (8 nm SW)
KEQY - Charlotte-Monroe Executive Airport (13 nm NE)
KUZA - Rock Hill (York County) Airport-Bryant Field (18 nm NW)
KPYG - Pageland Airport (21 nm E)
 
Loc | Ops | Rwys | IFR | FBO | Links
Com | Nav | Svcs | Stats | Notes
Area around 07NC (Hawks Meadow Airport)
 
Road maps at: MapQuest Bing Google
 
Aerial photo
No photo
 
Sectional chart

 
Airport distance calculator
Flying to Hawks Meadow Airport? Find the distance to fly.

From to 07NC

Sunrise and sunset
Times for 28-Nov-2022
 Local
(UTC-5)
 Zulu
(UTC)
Morning civil twilight06:4311:43
Sunrise07:1112:11
Sunset17:1122:11
Evening civil twilight17:3922:39

Current date and time
Zulu (UTC)  28-Nov-2022 12:10:34
Local (UTC-5)  28-Nov-2022 07:10:34
 
METAR
KLKR 
8nm SW 
281155Z AUTO 00000KT 10SM CLR 09/08 A2986 RMK AO2
KEQY 
13nm NE 
281153Z AUTO 23006KT 10SM CLR 08/06 A2984 RMK AO2 SLP114 70059 T00830061 10133 20078 53018
KUZA 
17nm NW 
281154Z AUTO 23006KT 10SM CLR 16/07 A2985 RMK AO2 SLP100 7//// T01610067 10211 20144 53018 $
TAF
KCLT 
25nm NW 
281131Z 2812/2918 25004KT P6SM SKC FM281500 28006KT P6SM FEW250 FM282000 30004KT P6SM FEW030 FM290400 05003KT P6SM SKC FM291400 08005KT P6SM FEW250
NOTAMs
Click for the latest NOTAMs
NOTAMs are issued by the DoD/FAA and will open in a separate window not controlled by AirNav.

 

 
 

Would you like to see your business listed on this page?

 If your business provides an interesting product or service to pilots, flight crews, aircraft, or users of the Hawks Meadow Airport, you should consider listing it here.  To start the listing process, click on the button below
 
Add a business
 

Other Pages about Hawks Meadow Airport

Update a link
 
Copyright © AirNav, LLC. All rights reserved. Privacy Policy  Contact